sensor_id;sensor_type;location;lat;lon;timestamp;temperature;humidity
79187;SHT31;68762;51.980;5.646;2023-08-07T00:00:20;16.0;77.0
79187;SHT31;68762;51.980;5.646;2023-08-07T00:02:49;15.9;77.3
79187;SHT31;68762;51.980;5.646;2023-08-07T00:05:19;15.9;77.6
79187;SHT31;68762;51.980;5.646;2023-08-07T00:07:47;15.9;77.8
79187;SHT31;68762;51.980;5.646;2023-08-07T00:10:16;15.8;78.1
79187;SHT31;68762;51.980;5.646;2023-08-07T00:12:45;15.8;78.1
79187;SHT31;68762;51.980;5.646;2023-08-07T00:15:14;15.8;78.6
79187;SHT31;68762;51.980;5.646;2023-08-07T00:17:42;15.8;78.7
79187;SHT31;68762;51.980;5.646;2023-08-07T00:20:11;15.8;78.6
79187;SHT31;68762;51.980;5.646;2023-08-07T00:22:41;15.7;78.9
79187;SHT31;68762;51.980;5.646;2023-08-07T00:25:10;15.7;79.2
79187;SHT31;68762;51.980;5.646;2023-08-07T00:27:38;15.7;79.4
79187;SHT31;68762;51.980;5.646;2023-08-07T00:30:07;15.7;79.3
79187;SHT31;68762;51.980;5.646;2023-08-07T00:32:36;15.7;79.3
79187;SHT31;68762;51.980;5.646;2023-08-07T00:35:06;15.7;79.7
79187;SHT31;68762;51.980;5.646;2023-08-07T00:37:35;15.7;79.6
79187;SHT31;68762;51.980;5.646;2023-08-07T00:40:03;15.7;79.5
79187;SHT31;68762;51.980;5.646;2023-08-07T00:42:32;15.7;79.6
79187;SHT31;68762;51.980;5.646;2023-08-07T00:45:00;15.7;79.2
79187;SHT31;68762;51.980;5.646;2023-08-07T00:47:31;15.7;79.5
79187;SHT31;68762;51.980;5.646;2023-08-07T00:50:00;15.7;79.5
79187;SHT31;68762;51.980;5.646;2023-08-07T00:52:29;15.7;79.4
79187;SHT31;68762;51.980;5.646;2023-08-07T00:54:58;15.7;79.7
79187;SHT31;68762;51.980;5.646;2023-08-07T00:57:27;15.7;79.3
79187;SHT31;68762;51.980;5.646;2023-08-07T00:59:56;15.7;79.4
79187;SHT31;68762;51.980;5.646;2023-08-07T01:02:25;15.8;79.3
79187;SHT31;68762;51.980;5.646;2023-08-07T01:04:54;15.8;79.0
79187;SHT31;68762;51.980;5.646;2023-08-07T01:07:23;15.8;78.8
79187;SHT31;68762;51.980;5.646;2023-08-07T01:09:51;15.8;78.6
79187;SHT31;68762;51.980;5.646;2023-08-07T01:12:28;15.8;78.7
79187;SHT31;68762;51.980;5.646;2023-08-07T01:15:04;15.8;78.4
79187;SHT31;68762;51.980;5.646;2023-08-07T01:17:39;15.8;78.1
79187;SHT31;68762;51.980;5.646;2023-08-07T01:20:11;15.8;78.0
79187;SHT31;68762;51.980;5.646;2023-08-07T01:22:39;15.8;78.1
79187;SHT31;68762;51.980;5.646;2023-08-07T01:25:08;15.8;77.8
79187;SHT31;68762;51.980;5.646;2023-08-07T01:27:43;15.8;77.8
79187;SHT31;68762;51.980;5.646;2023-08-07T01:30:17;15.8;77.4
79187;SHT31;68762;51.980;5.646;2023-08-07T01:32:56;15.9;77.2
79187;SHT31;68762;51.980;5.646;2023-08-07T01:35:29;15.9;77.2
79187;SHT31;68762;51.980;5.646;2023-08-07T01:38:01;15.9;77.6
79187;SHT31;68762;51.980;5.646;2023-08-07T01:40:32;15.9;77.6
79187;SHT31;68762;51.980;5.646;2023-08-07T01:43:04;15.9;77.3
79187;SHT31;68762;51.980;5.646;2023-08-07T01:45:33;15.9;77.0
79187;SHT31;68762;51.980;5.646;2023-08-07T01:48:02;15.9;76.9
79187;SHT31;68762;51.980;5.646;2023-08-07T01:50:31;15.9;76.6
79187;SHT31;68762;51.980;5.646;2023-08-07T01:53:02;15.9;76.5
79187;SHT31;68762;51.980;5.646;2023-08-07T01:55:31;15.9;76.9
79187;SHT31;68762;51.980;5.646;2023-08-07T01:57:59;15.9;76.7
79187;SHT31;68762;51.980;5.646;2023-08-07T02:00:29;15.9;76.6
79187;SHT31;68762;51.980;5.646;2023-08-07T02:02:58;15.9;76.2
79187;SHT31;68762;51.980;5.646;2023-08-07T02:05:26;15.9;76.2
79187;SHT31;68762;51.980;5.646;2023-08-07T02:07:55;15.9;76.0
79187;SHT31;68762;51.980;5.646;2023-08-07T02:10:24;15.9;75.9
79187;SHT31;68762;51.980;5.646;2023-08-07T02:12:57;15.9;75.8
79187;SHT31;68762;51.980;5.646;2023-08-07T02:15:26;16.0;75.7
79187;SHT31;68762;51.980;5.646;2023-08-07T02:17:55;16.0;75.4
79187;SHT31;68762;51.980;5.646;2023-08-07T02:20:23;16.0;75.5
79187;SHT31;68762;51.980;5.646;2023-08-07T02:22:52;16.0;75.5
79187;SHT31;68762;51.980;5.646;2023-08-07T02:25:20;16.0;75.2
79187;SHT31;68762;51.980;5.646;2023-08-07T02:27:49;16.0;75.4
79187;SHT31;68762;51.980;5.646;2023-08-07T02:30:17;16.0;75.4
79187;SHT31;68762;51.980;5.646;2023-08-07T02:32:46;16.0;75.4
79187;SHT31;68762;51.980;5.646;2023-08-07T02:35:14;16.0;75.7
79187;SHT31;68762;51.980;5.646;2023-08-07T02:37:43;16.0;75.5
79187;SHT31;68762;51.980;5.646;2023-08-07T02:40:12;16.0;75.8
79187;SHT31;68762;51.980;5.646;2023-08-07T02:42:42;16.0;75.3
79187;SHT31;68762;51.980;5.646;2023-08-07T02:45:10;16.0;75.6
79187;SHT31;68762;51.980;5.646;2023-08-07T02:47:39;16.0;75.5
79187;SHT31;68762;51.980;5.646;2023-08-07T02:50:08;16.0;75.7
79187;SHT31;68762;51.980;5.646;2023-08-07T02:52:37;16.0;75.6
79187;SHT31;68762;51.980;5.646;2023-08-07T02:55:07;16.0;75.8
79187;SHT31;68762;51.980;5.646;2023-08-07T02:57:36;16.0;75.7
79187;SHT31;68762;51.980;5.646;2023-08-07T03:00:05;16.1;75.2
79187;SHT31;68762;51.980;5.646;2023-08-07T03:02:34;16.1;75.4
79187;SHT31;68762;51.980;5.646;2023-08-07T03:05:03;16.1;75.2
79187;SHT31;68762;51.980;5.646;2023-08-07T03:07:32;16.1;74.9
79187;SHT31;68762;51.980;5.646;2023-08-07T03:10:00;16.1;74.7
79187;SHT31;68762;51.980;5.646;2023-08-07T03:12:30;16.1;75.3
79187;SHT31;68762;51.980;5.646;2023-08-07T03:14:59;16.1;75.2
79187;SHT31;68762;51.980;5.646;2023-08-07T03:17:27;16.1;75.4
79187;SHT31;68762;51.980;5.646;2023-08-07T03:19:56;16.1;75.8
79187;SHT31;68762;51.980;5.646;2023-08-07T03:22:24;16.1;75.9
79187;SHT31;68762;51.980;5.646;2023-08-07T03:24:53;16.1;76.0
79187;SHT31;68762;51.980;5.646;2023-08-07T03:27:21;16.1;76.1
79187;SHT31;68762;51.980;5.646;2023-08-07T03:29:50;16.1;76.3
79187;SHT31;68762;51.980;5.646;2023-08-07T03:32:20;16.0;76.4
79187;SHT31;68762;51.980;5.646;2023-08-07T03:34:48;16.0;76.5
79187;SHT31;68762;51.980;5.646;2023-08-07T03:37:19;16.0;76.6
79187;SHT31;68762;51.980;5.646;2023-08-07T03:39:47;16.0;76.4
79187;SHT31;68762;51.980;5.646;2023-08-07T03:42:18;16.0;76.5
79187;SHT31;68762;51.980;5.646;2023-08-07T03:44:49;16.0;76.4
79187;SHT31;68762;51.980;5.646;2023-08-07T03:47:17;16.0;76.6
79187;SHT31;68762;51.980;5.646;2023-08-07T03:49:46;16.0;76.6
79187;SHT31;68762;51.980;5.646;2023-08-07T03:52:14;15.9;76.6
79187;SHT31;68762;51.980;5.646;2023-08-07T03:54:44;15.9;76.7
79187;SHT31;68762;51.980;5.646;2023-08-07T03:57:13;15.9;76.7
79187;SHT31;68762;51.980;5.646;2023-08-07T03:59:41;15.9;76.9
79187;SHT31;68762;51.980;5.646;2023-08-07T04:02:10;15.9;76.8
79187;SHT31;68762;51.980;5.646;2023-08-07T04:04:38;15.9;76.9
79187;SHT31;68762;51.980;5.646;2023-08-07T04:07:07;16.0;76.8
79187;SHT31;68762;51.980;5.646;2023-08-07T04:09:37;16.0;76.5
79187;SHT31;68762;51.980;5.646;2023-08-07T04:12:06;16.0;76.7
79187;SHT31;68762;51.980;5.646;2023-08-07T04:14:35;16.0;76.8
79187;SHT31;68762;51.980;5.646;2023-08-07T04:17:04;16.0;76.5
79187;SHT31;68762;51.980;5.646;2023-08-07T04:19:33;16.0;76.6
79187;SHT31;68762;51.980;5.646;2023-08-07T04:22:02;16.0;76.7
79187;SHT31;68762;51.980;5.646;2023-08-07T04:24:31;16.0;77.0
79187;SHT31;68762;51.980;5.646;2023-08-07T04:26:59;15.9;77.2
79187;SHT31;68762;51.980;5.646;2023-08-07T04:29:28;15.9;77.4
79187;SHT31;68762;51.980;5.646;2023-08-07T04:31:56;15.9;77.9
79187;SHT31;68762;51.980;5.646;2023-08-07T04:34:25;16.0;77.8
79187;SHT31;68762;51.980;5.646;2023-08-07T04:36:53;16.0;77.8
79187;SHT31;68762;51.980;5.646;2023-08-07T04:39:22;16.0;77.7
79187;SHT31;68762;51.980;5.646;2023-08-07T04:41:51;16.0;77.7
79187;SHT31;68762;51.980;5.646;2023-08-07T04:44:20;16.0;78.2
79187;SHT31;68762;51.980;5.646;2023-08-07T04:46:48;16.0;78.2
79187;SHT31;68762;51.980;5.646;2023-08-07T04:49:18;16.0;78.4
79187;SHT31;68762;51.980;5.646;2023-08-07T04:51:47;16.0;78.3
79187;SHT31;68762;51.980;5.646;2023-08-07T04:54:15;16.0;78.2
79187;SHT31;68762;51.980;5.646;2023-08-07T04:56:44;16.0;78.2
79187;SHT31;68762;51.980;5.646;2023-08-07T04:59:14;16.1;78.2
79187;SHT31;68762;51.980;5.646;2023-08-07T05:01:43;16.1;77.9
79187;SHT31;68762;51.980;5.646;2023-08-07T05:04:11;16.1;78.0
79187;SHT31;68762;51.980;5.646;2023-08-07T05:06:40;16.1;78.1
79187;SHT31;68762;51.980;5.646;2023-08-07T05:09:08;16.1;77.9
79187;SHT31;68762;51.980;5.646;2023-08-07T05:11:37;16.1;78.2
79187;SHT31;68762;51.980;5.646;2023-08-07T05:14:05;16.1;78.2
79187;SHT31;68762;51.980;5.646;2023-08-07T05:16:34;16.1;78.1
79187;SHT31;68762;51.980;5.646;2023-08-07T05:19:02;16.1;78.1
79187;SHT31;68762;51.980;5.646;2023-08-07T05:21:31;16.1;78.2
79187;SHT31;68762;51.980;5.646;2023-08-07T05:23:59;16.1;78.4
79187;SHT31;68762;51.980;5.646;2023-08-07T05:26:28;16.1;78.0
79187;SHT31;68762;51.980;5.646;2023-08-07T05:28:57;16.1;78.0
79187;SHT31;68762;51.980;5.646;2023-08-07T05:31:25;16.1;78.1
79187;SHT31;68762;51.980;5.646;2023-08-07T05:33:54;16.1;77.8
79187;SHT31;68762;51.980;5.646;2023-08-07T05:36:22;16.2;77.7
79187;SHT31;68762;51.980;5.646;2023-08-07T05:38:51;16.2;77.7
79187;SHT31;68762;51.980;5.646;2023-08-07T05:41:20;16.2;78.1
79187;SHT31;68762;51.980;5.646;2023-08-07T05:43:48;16.2;78.3
79187;SHT31;68762;51.980;5.646;2023-08-07T05:46:17;16.2;78.6
79187;SHT31;68762;51.980;5.646;2023-08-07T05:48:46;16.2;78.7
79187;SHT31;68762;51.980;5.646;2023-08-07T05:51:14;16.2;78.7
79187;SHT31;68762;51.980;5.646;2023-08-07T05:53:43;16.2;78.6
79187;SHT31;68762;51.980;5.646;2023-08-07T05:56:11;16.2;78.3
79187;SHT31;68762;51.980;5.646;2023-08-07T05:58:40;16.2;78.3
79187;SHT31;68762;51.980;5.646;2023-08-07T06:01:09;16.2;78.1
79187;SHT31;68762;51.980;5.646;2023-08-07T06:03:37;16.2;78.3
79187;SHT31;68762;51.980;5.646;2023-08-07T06:06:06;16.2;77.8
79187;SHT31;68762;51.980;5.646;2023-08-07T06:08:34;16.2;78.6
79187;SHT31;68762;51.980;5.646;2023-08-07T06:11:03;16.2;78.8
79187;SHT31;68762;51.980;5.646;2023-08-07T06:13:36;16.2;78.9
79187;SHT31;68762;51.980;5.646;2023-08-07T06:16:06;16.2;78.7
79187;SHT31;68762;51.980;5.646;2023-08-07T06:18:36;16.2;78.6
79187;SHT31;68762;51.980;5.646;2023-08-07T06:21:04;16.2;78.1
79187;SHT31;68762;51.980;5.646;2023-08-07T06:23:33;16.2;77.8
79187;SHT31;68762;51.980;5.646;2023-08-07T06:26:02;16.2;77.9
79187;SHT31;68762;51.980;5.646;2023-08-07T06:28:36;16.2;77.9
79187;SHT31;68762;51.980;5.646;2023-08-07T06:31:06;16.2;78.4
79187;SHT31;68762;51.980;5.646;2023-08-07T06:33:35;16.3;78.1
79187;SHT31;68762;51.980;5.646;2023-08-07T06:36:06;16.3;78.3
79187;SHT31;68762;51.980;5.646;2023-08-07T06:38:35;16.3;78.4
79187;SHT31;68762;51.980;5.646;2023-08-07T06:41:04;16.3;79.0
79187;SHT31;68762;51.980;5.646;2023-08-07T06:43:32;16.3;79.2
79187;SHT31;68762;51.980;5.646;2023-08-07T06:46:01;16.4;78.9
79187;SHT31;68762;51.980;5.646;2023-08-07T06:48:30;16.4;78.8
79187;SHT31;68762;51.980;5.646;2023-08-07T06:50:59;16.4;78.6
79187;SHT31;68762;51.980;5.646;2023-08-07T06:53:28;16.5;78.3
79187;SHT31;68762;51.980;5.646;2023-08-07T06:55:57;16.5;79.0
79187;SHT31;68762;51.980;5.646;2023-08-07T06:58:25;16.5;79.3
79187;SHT31;68762;51.980;5.646;2023-08-07T07:00:53;16.6;78.6
79187;SHT31;68762;51.980;5.646;2023-08-07T07:03:22;16.6;79.4
79187;SHT31;68762;51.980;5.646;2023-08-07T07:05:51;16.6;79.3
79187;SHT31;68762;51.980;5.646;2023-08-07T07:08:19;16.7;77.8
79187;SHT31;68762;51.980;5.646;2023-08-07T07:10:51;16.7;77.5
79187;SHT31;68762;51.980;5.646;2023-08-07T07:13:20;16.7;77.2
79187;SHT31;68762;51.980;5.646;2023-08-07T07:15:52;16.8;76.7
79187;SHT31;68762;51.980;5.646;2023-08-07T07:18:21;16.8;77.8
79187;SHT31;68762;51.980;5.646;2023-08-07T07:20:55;16.8;77.4
79187;SHT31;68762;51.980;5.646;2023-08-07T07:23:24;16.8;77.4
79187;SHT31;68762;51.980;5.646;2023-08-07T07:25:53;16.9;78.4
79187;SHT31;68762;51.980;5.646;2023-08-07T07:28:21;16.9;79.6
79187;SHT31;68762;51.980;5.646;2023-08-07T07:30:51;17.0;79.6
79187;SHT31;68762;51.980;5.646;2023-08-07T07:33:19;17.0;78.3
79187;SHT31;68762;51.980;5.646;2023-08-07T07:35:48;17.1;78.8
79187;SHT31;68762;51.980;5.646;2023-08-07T07:38:18;17.1;78.4
79187;SHT31;68762;51.980;5.646;2023-08-07T07:40:47;17.2;77.4
79187;SHT31;68762;51.980;5.646;2023-08-07T07:43:15;17.3;75.2
79187;SHT31;68762;51.980;5.646;2023-08-07T07:45:47;17.3;75.1
79187;SHT31;68762;51.980;5.646;2023-08-07T07:48:15;17.3;75.4
79187;SHT31;68762;51.980;5.646;2023-08-07T07:50:44;17.4;75.1
79187;SHT31;68762;51.980;5.646;2023-08-07T07:53:14;17.4;74.4
79187;SHT31;68762;51.980;5.646;2023-08-07T07:55:46;17.4;74.9
79187;SHT31;68762;51.980;5.646;2023-08-07T07:58:15;17.4;75.6
79187;SHT31;68762;51.980;5.646;2023-08-07T08:00:43;17.4;76.5
79187;SHT31;68762;51.980;5.646;2023-08-07T08:03:12;17.4;78.1
79187;SHT31;68762;51.980;5.646;2023-08-07T08:05:41;17.4;78.3
79187;SHT31;68762;51.980;5.646;2023-08-07T08:08:10;17.5;75.4
79187;SHT31;68762;51.980;5.646;2023-08-07T08:10:39;17.5;76.4
79187;SHT31;68762;51.980;5.646;2023-08-07T08:13:08;17.5;76.4
79187;SHT31;68762;51.980;5.646;2023-08-07T08:15:38;17.6;75.3
79187;SHT31;68762;51.980;5.646;2023-08-07T08:18:06;17.6;74.3
79187;SHT31;68762;51.980;5.646;2023-08-07T08:20:35;17.6;74.5
79187;SHT31;68762;51.980;5.646;2023-08-07T08:23:05;17.6;75.5
79187;SHT31;68762;51.980;5.646;2023-08-07T08:25:33;17.6;75.2
79187;SHT31;68762;51.980;5.646;2023-08-07T08:28:04;17.6;74.2
79187;SHT31;68762;51.980;5.646;2023-08-07T08:30:33;17.6;74.8
79187;SHT31;68762;51.980;5.646;2023-08-07T08:33:01;17.7;76.3
79187;SHT31;68762;51.980;5.646;2023-08-07T08:35:31;17.7;76.6
79187;SHT31;68762;51.980;5.646;2023-08-07T08:38:00;17.7;77.1
79187;SHT31;68762;51.980;5.646;2023-08-07T08:40:30;17.8;77.2
79187;SHT31;68762;51.980;5.646;2023-08-07T08:43:00;17.8;75.7
79187;SHT31;68762;51.980;5.646;2023-08-07T08:45:30;17.9;75.2
79187;SHT31;68762;51.980;5.646;2023-08-07T08:48:02;17.9;74.9
79187;SHT31;68762;51.980;5.646;2023-08-07T08:50:32;18.0;74.5
79187;SHT31;68762;51.980;5.646;2023-08-07T08:53:04;18.0;72.7
79187;SHT31;68762;51.980;5.646;2023-08-07T08:55:35;18.0;71.9
79187;SHT31;68762;51.980;5.646;2023-08-07T08:58:04;18.0;71.7
79187;SHT31;68762;51.980;5.646;2023-08-07T09:00:36;18.0;71.6
79187;SHT31;68762;51.980;5.646;2023-08-07T09:03:05;18.1;72.5
79187;SHT31;68762;51.980;5.646;2023-08-07T09:05:35;18.1;73.3
79187;SHT31;68762;51.980;5.646;2023-08-07T09:08:04;18.2;71.3
79187;SHT31;68762;51.980;5.646;2023-08-07T09:10:34;18.3;74.0
79187;SHT31;68762;51.980;5.646;2023-08-07T09:13:05;18.4;73.1
79187;SHT31;68762;51.980;5.646;2023-08-07T09:15:40;18.5;70.0
79187;SHT31;68762;51.980;5.646;2023-08-07T09:18:14;18.6;70.6
79187;SHT31;68762;51.980;5.646;2023-08-07T09:20:45;18.6;68.0
79187;SHT31;68762;51.980;5.646;2023-08-07T09:23:15;18.7;68.2
79187;SHT31;68762;51.980;5.646;2023-08-07T09:25:46;18.7;68.3
79187;SHT31;68762;51.980;5.646;2023-08-07T09:28:15;18.7;66.7
79187;SHT31;68762;51.980;5.646;2023-08-07T09:30:44;18.7;67.8
79187;SHT31;68762;51.980;5.646;2023-08-07T09:33:14;18.7;67.2
79187;SHT31;68762;51.980;5.646;2023-08-07T09:35:42;18.7;67.6
79187;SHT31;68762;51.980;5.646;2023-08-07T09:38:11;18.7;68.1
79187;SHT31;68762;51.980;5.646;2023-08-07T09:40:42;18.7;69.3
79187;SHT31;68762;51.980;5.646;2023-08-07T09:43:22;18.7;69.0
79187;SHT31;68762;51.980;5.646;2023-08-07T09:45:50;18.7;67.7
79187;SHT31;68762;51.980;5.646;2023-08-07T09:48:23;18.7;68.5
79187;SHT31;68762;51.980;5.646;2023-08-07T09:50:54;18.8;67.6
79187;SHT31;68762;51.980;5.646;2023-08-07T09:53:27;18.8;66.9
79187;SHT31;68762;51.980;5.646;2023-08-07T09:55:56;18.9;66.7
79187;SHT31;68762;51.980;5.646;2023-08-07T09:58:25;18.9;67.3
79187;SHT31;68762;51.980;5.646;2023-08-07T10:00:53;19.0;66.8
79187;SHT31;68762;51.980;5.646;2023-08-07T10:03:26;19.0;66.8
79187;SHT31;68762;51.980;5.646;2023-08-07T10:05:56;19.1;64.6
79187;SHT31;68762;51.980;5.646;2023-08-07T10:08:26;19.1;65.2
79187;SHT31;68762;51.980;5.646;2023-08-07T10:10:56;19.1;64.2
79187;SHT31;68762;51.980;5.646;2023-08-07T10:13:26;19.1;65.5
79187;SHT31;68762;51.980;5.646;2023-08-07T10:15:55;19.1;62.8
79187;SHT31;68762;51.980;5.646;2023-08-07T10:18:24;19.1;63.7
79187;SHT31;68762;51.980;5.646;2023-08-07T10:20:53;19.1;62.8
79187;SHT31;68762;51.980;5.646;2023-08-07T10:23:22;19.1;63.2
79187;SHT31;68762;51.980;5.646;2023-08-07T10:25:52;19.1;65.0
79187;SHT31;68762;51.980;5.646;2023-08-07T10:28:23;19.1;64.4
79187;SHT31;68762;51.980;5.646;2023-08-07T10:30:53;19.1;67.5
79187;SHT31;68762;51.980;5.646;2023-08-07T10:33:22;19.1;63.4
79187;SHT31;68762;51.980;5.646;2023-08-07T10:35:52;19.2;64.8
79187;SHT31;68762;51.980;5.646;2023-08-07T10:38:23;19.2;65.8
79187;SHT31;68762;51.980;5.646;2023-08-07T10:41:04;19.2;65.1
79187;SHT31;68762;51.980;5.646;2023-08-07T10:43:38;19.2;64.6
79187;SHT31;68762;51.980;5.646;2023-08-07T10:46:09;19.2;63.2
79187;SHT31;68762;51.980;5.646;2023-08-07T10:48:42;19.2;65.2
79187;SHT31;68762;51.980;5.646;2023-08-07T10:51:17;19.2;67.7
79187;SHT31;68762;51.980;5.646;2023-08-07T10:53:47;19.2;65.6
79187;SHT31;68762;51.980;5.646;2023-08-07T10:56:31;19.2;65.9
79187;SHT31;68762;51.980;5.646;2023-08-07T10:58:52;19.3;69.6
79187;SHT31;68762;51.980;5.646;2023-08-07T11:01:24;19.3;70.3
79187;SHT31;68762;51.980;5.646;2023-08-07T11:03:57;19.4;64.1
79187;SHT31;68762;51.980;5.646;2023-08-07T11:06:29;19.5;66.0
79187;SHT31;68762;51.980;5.646;2023-08-07T11:08:59;19.6;64.2
79187;SHT31;68762;51.980;5.646;2023-08-07T11:11:30;19.7;63.8
79187;SHT31;68762;51.980;5.646;2023-08-07T11:14:01;19.8;62.9
79187;SHT31;68762;51.980;5.646;2023-08-07T11:16:30;19.8;60.9
79187;SHT31;68762;51.980;5.646;2023-08-07T11:19:01;19.9;61.1
79187;SHT31;68762;51.980;5.646;2023-08-07T11:21:30;19.9;60.8
79187;SHT31;68762;51.980;5.646;2023-08-07T11:23:59;19.9;61.6
79187;SHT31;68762;51.980;5.646;2023-08-07T11:26:28;20.0;60.3
79187;SHT31;68762;51.980;5.646;2023-08-07T11:28:59;20.0;61.3
79187;SHT31;68762;51.980;5.646;2023-08-07T11:31:28;20.0;60.9
79187;SHT31;68762;51.980;5.646;2023-08-07T11:33:58;20.0;61.7
79187;SHT31;68762;51.980;5.646;2023-08-07T11:36:29;20.0;61.7
79187;SHT31;68762;51.980;5.646;2023-08-07T11:38:58;20.0;59.8
79187;SHT31;68762;51.980;5.646;2023-08-07T11:41:27;20.0;58.7
79187;SHT31;68762;51.980;5.646;2023-08-07T11:43:55;20.0;58.3
79187;SHT31;68762;51.980;5.646;2023-08-07T11:46:25;20.0;58.8
79187;SHT31;68762;51.980;5.646;2023-08-07T11:48:56;19.9;61.9
79187;SHT31;68762;51.980;5.646;2023-08-07T11:51:24;19.9;60.5
79187;SHT31;68762;51.980;5.646;2023-08-07T11:53:53;19.9;59.3
79187;SHT31;68762;51.980;5.646;2023-08-07T11:56:25;19.9;60.7
79187;SHT31;68762;51.980;5.646;2023-08-07T11:58:53;19.9;62.3
79187;SHT31;68762;51.980;5.646;2023-08-07T12:01:23;19.9;61.2
79187;SHT31;68762;51.980;5.646;2023-08-07T12:03:54;19.9;62.7
79187;SHT31;68762;51.980;5.646;2023-08-07T12:06:24;19.9;62.2
79187;SHT31;68762;51.980;5.646;2023-08-07T12:08:56;20.0;58.0
79187;SHT31;68762;51.980;5.646;2023-08-07T12:11:25;20.0;61.9
79187;SHT31;68762;51.980;5.646;2023-08-07T12:13:53;20.0;60.5
79187;SHT31;68762;51.980;5.646;2023-08-07T12:16:22;20.0;60.1
79187;SHT31;68762;51.980;5.646;2023-08-07T12:18:52;20.0;62.0
79187;SHT31;68762;51.980;5.646;2023-08-07T12:21:22;20.1;60.1
79187;SHT31;68762;51.980;5.646;2023-08-07T12:23:54;20.1;57.8
79187;SHT31;68762;51.980;5.646;2023-08-07T12:26:23;20.1;57.8
79187;SHT31;68762;51.980;5.646;2023-08-07T12:28:52;20.2;59.1
79187;SHT31;68762;51.980;5.646;2023-08-07T12:31:21;20.2;58.2
79187;SHT31;68762;51.980;5.646;2023-08-07T12:33:50;20.2;58.1
79187;SHT31;68762;51.980;5.646;2023-08-07T12:36:20;20.3;60.4
79187;SHT31;68762;51.980;5.646;2023-08-07T12:38:49;20.3;57.4
79187;SHT31;68762;51.980;5.646;2023-08-07T12:41:17;20.3;58.4
79187;SHT31;68762;51.980;5.646;2023-08-07T12:43:46;20.3;57.5
79187;SHT31;68762;51.980;5.646;2023-08-07T12:46:14;20.3;60.4
79187;SHT31;68762;51.980;5.646;2023-08-07T12:48:44;20.3;59.6
79187;SHT31;68762;51.980;5.646;2023-08-07T12:51:12;20.3;59.0
79187;SHT31;68762;51.980;5.646;2023-08-07T12:53:41;20.3;58.3
79187;SHT31;68762;51.980;5.646;2023-08-07T12:56:11;20.2;57.6
79187;SHT31;68762;51.980;5.646;2023-08-07T12:58:40;20.2;58.4
79187;SHT31;68762;51.980;5.646;2023-08-07T13:01:08;20.2;59.4
79187;SHT31;68762;51.980;5.646;2023-08-07T13:03:37;20.2;57.1
79187;SHT31;68762;51.980;5.646;2023-08-07T13:06:05;20.2;59.4
79187;SHT31;68762;51.980;5.646;2023-08-07T13:08:35;20.2;56.8
79187;SHT31;68762;51.980;5.646;2023-08-07T13:11:03;20.2;56.2
79187;SHT31;68762;51.980;5.646;2023-08-07T13:13:32;20.1;57.8
79187;SHT31;68762;51.980;5.646;2023-08-07T13:16:00;20.1;56.5
79187;SHT31;68762;51.980;5.646;2023-08-07T13:18:29;20.1;55.4
79187;SHT31;68762;51.980;5.646;2023-08-07T13:20:58;20.1;56.8
79187;SHT31;68762;51.980;5.646;2023-08-07T13:23:28;20.2;55.2
79187;SHT31;68762;51.980;5.646;2023-08-07T13:25:59;20.2;55.8
79187;SHT31;68762;51.980;5.646;2023-08-07T13:28:27;20.3;59.5
79187;SHT31;68762;51.980;5.646;2023-08-07T13:30:56;20.4;54.3
79187;SHT31;68762;51.980;5.646;2023-08-07T13:33:25;20.4;53.0
79187;SHT31;68762;51.980;5.646;2023-08-07T13:35:53;20.5;52.1
79187;SHT31;68762;51.980;5.646;2023-08-07T13:38:22;20.5;52.5
79187;SHT31;68762;51.980;5.646;2023-08-07T13:40:51;20.5;53.3
79187;SHT31;68762;51.980;5.646;2023-08-07T13:43:19;20.5;54.0
79187;SHT31;68762;51.980;5.646;2023-08-07T13:45:48;20.5;56.2
79187;SHT31;68762;51.980;5.646;2023-08-07T13:48:17;20.5;57.4
79187;SHT31;68762;51.980;5.646;2023-08-07T13:50:46;20.6;53.6
79187;SHT31;68762;51.980;5.646;2023-08-07T13:53:15;20.6;57.0
79187;SHT31;68762;51.980;5.646;2023-08-07T13:55:44;20.7;54.1
79187;SHT31;68762;51.980;5.646;2023-08-07T13:58:13;20.9;51.4
79187;SHT31;68762;51.980;5.646;2023-08-07T14:00:43;21.0;50.8
79187;SHT31;68762;51.980;5.646;2023-08-07T14:03:11;21.1;49.1
79187;SHT31;68762;51.980;5.646;2023-08-07T14:05:40;21.2;49.8
79187;SHT31;68762;51.980;5.646;2023-08-07T14:08:09;21.2;51.0
79187;SHT31;68762;51.980;5.646;2023-08-07T14:10:38;21.3;48.3
79187;SHT31;68762;51.980;5.646;2023-08-07T14:13:08;21.5;47.7
79187;SHT31;68762;51.980;5.646;2023-08-07T14:15:39;21.6;46.7
79187;SHT31;68762;51.980;5.646;2023-08-07T14:18:08;21.7;45.0
79187;SHT31;68762;51.980;5.646;2023-08-07T14:20:38;21.8;47.2
79187;SHT31;68762;51.980;5.646;2023-08-07T14:23:07;21.9;45.8
79187;SHT31;68762;51.980;5.646;2023-08-07T14:25:35;22.0;45.5
79187;SHT31;68762;51.980;5.646;2023-08-07T14:28:04;22.1;49.6
79187;SHT31;68762;51.980;5.646;2023-08-07T14:30:33;22.1;50.2
79187;SHT31;68762;51.980;5.646;2023-08-07T14:33:02;22.2;47.3
79187;SHT31;68762;51.980;5.646;2023-08-07T14:35:30;22.2;46.6
79187;SHT31;68762;51.980;5.646;2023-08-07T14:37:59;22.3;45.1
79187;SHT31;68762;51.980;5.646;2023-08-07T14:40:29;22.3;45.3
79187;SHT31;68762;51.980;5.646;2023-08-07T14:42:58;22.3;47.6
79187;SHT31;68762;51.980;5.646;2023-08-07T14:45:29;22.3;47.3
79187;SHT31;68762;51.980;5.646;2023-08-07T14:47:57;22.3;46.6
79187;SHT31;68762;51.980;5.646;2023-08-07T14:50:26;22.3;45.3
79187;SHT31;68762;51.980;5.646;2023-08-07T14:52:54;22.3;46.6
79187;SHT31;68762;51.980;5.646;2023-08-07T14:55:23;22.3;48.3
79187;SHT31;68762;51.980;5.646;2023-08-07T14:57:52;22.3;47.4
79187;SHT31;68762;51.980;5.646;2023-08-07T15:00:20;22.3;48.7
79187;SHT31;68762;51.980;5.646;2023-08-07T15:02:49;22.3;45.2
79187;SHT31;68762;51.980;5.646;2023-08-07T15:05:17;22.3;45.3
79187;SHT31;68762;51.980;5.646;2023-08-07T15:07:46;22.3;45.0
79187;SHT31;68762;51.980;5.646;2023-08-07T15:10:15;22.3;44.2
79187;SHT31;68762;51.980;5.646;2023-08-07T15:12:44;22.2;45.5
79187;SHT31;68762;51.980;5.646;2023-08-07T15:15:13;22.2;46.9
79187;SHT31;68762;51.980;5.646;2023-08-07T15:17:42;22.2;45.2
79187;SHT31;68762;51.980;5.646;2023-08-07T15:20:11;22.1;46.2
79187;SHT31;68762;51.980;5.646;2023-08-07T15:22:39;22.1;45.2
79187;SHT31;68762;51.980;5.646;2023-08-07T15:25:09;22.0;45.4
79187;SHT31;68762;51.980;5.646;2023-08-07T15:27:37;22.0;45.5
79187;SHT31;68762;51.980;5.646;2023-08-07T15:30:07;21.9;45.6
79187;SHT31;68762;51.980;5.646;2023-08-07T15:32:37;21.8;45.0
79187;SHT31;68762;51.980;5.646;2023-08-07T15:35:07;21.7;45.1
79187;SHT31;68762;51.980;5.646;2023-08-07T15:37:37;21.6;46.3
79187;SHT31;68762;51.980;5.646;2023-08-07T15:40:06;21.6;47.5
79187;SHT31;68762;51.980;5.646;2023-08-07T15:42:35;21.5;48.0
79187;SHT31;68762;51.980;5.646;2023-08-07T15:45:04;21.4;48.1
79187;SHT31;68762;51.980;5.646;2023-08-07T15:47:33;21.4;49.3
79187;SHT31;68762;51.980;5.646;2023-08-07T15:50:01;21.3;50.4
79187;SHT31;68762;51.980;5.646;2023-08-07T15:52:30;21.2;51.0
79187;SHT31;68762;51.980;5.646;2023-08-07T15:54:59;21.1;51.6
79187;SHT31;68762;51.980;5.646;2023-08-07T15:57:28;21.1;51.9
79187;SHT31;68762;51.980;5.646;2023-08-07T15:59:57;21.0;52.5
79187;SHT31;68762;51.980;5.646;2023-08-07T16:02:25;20.9;53.1
79187;SHT31;68762;51.980;5.646;2023-08-07T16:04:54;20.8;53.5
79187;SHT31;68762;51.980;5.646;2023-08-07T16:07:23;20.7;52.9
79187;SHT31;68762;51.980;5.646;2023-08-07T16:09:51;20.6;52.7
79187;SHT31;68762;51.980;5.646;2023-08-07T16:12:20;20.6;53.8
79187;SHT31;68762;51.980;5.646;2023-08-07T16:14:48;20.5;54.4